Time;durP1;ratioP1;P1;durP2;ratioP2;P2;SDS_P1;SDS_P2;PMS_P1;PMS_P2;Temp;Humidity;BMP_temperature;BMP_pressure;BME280_temperature;BME280_humidity;BME280_pressure;Samples;Min_cycle;Max_cycle;Signal;HPM_P1;HPM_P2
2021/01/30 00:01:06;;;;;;;32.80;17.02;;;;;;;22.23;16.53;96107.56;5065038;28;20518;-81
2021/01/30 00:03:32;;;;;;;30.67;14.98;;;;;;;22.20;16.51;96112.09;5062393;28;20033;-81
2021/01/30 00:05:58;;;;;;;34.45;17.77;;;;;;;22.16;16.54;96117.06;5069508;28;20054;-81
2021/01/30 00:08:24;;;;;;;36.42;16.30;;;;;;;21.71;16.94;96111.47;5072230;28;20401;-81
2021/01/30 00:10:50;;;;;;;32.25;15.55;;;;;;;21.43;17.37;96113.47;5071764;28;20041;-81
2021/01/30 00:13:16;;;;;;;39.03;17.40;;;;;;;21.05;17.78;96113.09;5072446;28;20032;-81
2021/01/30 00:15:42;;;;;;;37.28;17.77;;;;;;;20.32;18.42;96120.34;5065138;28;20053;-81
2021/01/30 00:18:09;;;;;;;33.75;15.68;;;;;;;20.16;18.76;96117.75;5068998;28;20033;-81
2021/01/30 00:20:38;;;;;;;33.58;16.45;;;;;;;19.98;18.78;96116.38;5067589;28;20253;-81
2021/01/30 00:23:06;;;;;;;30.60;14.70;;;;;;;19.59;19.29;96110.66;5071917;28;20078;-81
2021/01/30 00:25:34;;;;;;;32.85;14.27;;;;;;;19.07;19.96;96114.78;5068531;28;20120;-81
2021/01/30 00:28:00;;;;;;;28.98;14.73;;;;;;;19.41;19.58;96113.28;5067174;28;20113;-81
2021/01/30 00:30:29;;;;;;;27.98;13.77;;;;;;;19.80;19.07;96107.91;5062321;28;20025;-81
2021/01/30 00:32:56;;;;;;;31.95;15.30;;;;;;;19.83;19.09;96112.56;5065128;28;20502;-81
2021/01/30 00:35:25;;;;;;;32.22;15.15;;;;;;;19.72;19.17;96112.16;5069981;28;20492;-81
2021/01/30 00:37:51;;;;;;;35.55;15.68;;;;;;;19.79;19.26;96120.25;5071757;28;20064;-81
2021/01/30 00:40:19;;;;;;;31.90;16.70;;;;;;;19.55;19.34;96121.94;5066547;28;20036;-81
2021/01/30 00:42:45;;;;;;;29.02;15.20;;;;;;;19.50;19.46;96121.72;5073352;28;20111;-81
2021/01/30 00:45:14;;;;;;;27.98;14.23;;;;;;;19.49;19.35;96128.50;5068520;28;20028;-81
2021/01/30 00:47:41;;;;;;;26.52;13.85;;;;;;;19.59;19.45;96125.38;5067928;28;20037;-81
2021/01/30 00:50:07;;;;;;;23.35;13.02;;;;;;;19.37;19.52;96135.66;5065025;28;20475;-81
2021/01/30 00:52:34;;;;;;;28.77;13.82;;;;;;;19.44;19.64;96131.88;5067162;28;20780;-81
2021/01/30 00:55:00;;;;;;;28.55;13.88;;;;;;;19.34;19.53;96125.41;5060567;28;20021;-82
2021/01/30 00:57:26;;;;;;;23.73;12.85;;;;;;;19.89;19.04;96121.09;5070805;28;20032;-81
2021/01/30 00:59:52;;;;;;;29.75;14.70;;;;;;;20.21;18.66;96122.72;5064287;28;20479;-81
2021/01/30 01:02:18;;;;;;;32.03;12.90;;;;;;;20.09;18.63;96126.38;5060996;28;20043;-81
2021/01/30 01:04:45;;;;;;;31.42;15.32;;;;;;;19.86;19.03;96133.19;5079973;28;20119;-81
2021/01/30 01:07:13;;;;;;;30.02;15.75;;;;;;;19.81;18.96;96126.16;5065674;28;20033;-80
2021/01/30 01:09:40;;;;;;;29.20;14.40;;;;;;;20.26;18.50;96127.72;5067821;28;20021;-81
2021/01/30 01:12:07;;;;;;;30.35;16.52;;;;;;;20.56;18.18;96127.75;5067819;28;20024;-81
2021/01/30 01:14:36;;;;;;;27.50;13.57;;;;;;;20.77;17.90;96128.16;5069647;28;20046;-81
2021/01/30 01:17:02;;;;;;;28.70;14.70;;;;;;;20.71;18.05;96127.97;5071988;28;20103;-81
2021/01/30 01:19:28;;;;;;;30.77;15.27;;;;;;;20.49;18.09;96127.25;5066789;28;20086;-81
2021/01/30 01:21:54;;;;;;;28.33;14.80;;;;;;;20.16;18.63;96129.66;5074797;28;20497;-81
2021/01/30 01:24:22;;;;;;;28.60;14.02;;;;;;;20.39;18.19;96120.84;5067181;28;20024;-80
2021/01/30 01:26:50;;;;;;;25.33;12.52;;;;;;;20.84;18.04;96105.56;5070689;28;20067;-81
2021/01/30 01:29:20;;;;;;;25.33;11.00;;;;;;;20.71;17.93;96113.25;5059128;28;20436;-81
2021/01/30 01:31:51;;;;;;;29.25;13.80;;;;;;;20.63;18.13;96107.94;5067338;28;20029;-81
2021/01/30 01:34:19;;;;;;;28.63;12.95;;;;;;;20.87;17.97;96099.03;5062237;28;20099;-81
2021/01/30 01:36:55;;;;;;;23.55;12.43;;;;;;;21.08;17.53;96101.78;5062537;28;20538;-81
2021/01/30 01:39:22;;;;;;;29.85;13.88;;;;;;;21.10;17.52;96109.69;5065880;28;20071;-81
2021/01/30 01:42:03;;;;;;;28.17;13.57;;;;;;;21.19;17.43;96106.94;5060982;28;20040;-80
2021/01/30 01:44:29;;;;;;;27.30;13.10;;;;;;;21.66;17.10;96104.50;5064921;28;20036;-81
2021/01/30 01:46:56;;;;;;;26.85;12.90;;;;;;;21.45;17.21;96116.56;5065313;28;20059;-81
2021/01/30 01:49:27;;;;;;;24.00;12.02;;;;;;;21.33;17.35;96100.75;5066995;28;20036;-80
2021/01/30 01:52:23;;;;;;;26.45;12.63;;;;;;;21.24;17.40;96104.28;5060376;28;20377;-81
2021/01/30 01:54:54;;;;;;;20.38;10.05;;;;;;;21.71;17.13;96103.09;5060470;28;20062;-81
2021/01/30 01:57:20;;;;;;;27.38;12.50;;;;;;;22.08;16.50;96103.88;5060916;28;20108;-81
2021/01/30 01:59:53;;;;;;;23.05;10.73;;;;;;;22.04;16.59;96106.81;5081737;28;20028;-81
2021/01/30 02:02:20;;;;;;;23.70;10.10;;;;;;;22.49;16.30;96101.16;5065699;28;20033;-80
2021/01/30 02:05:07;;;;;;;23.83;11.13;;;;;;;22.89;15.99;96094.50;5066910;28;20115;-80
2021/01/30 02:07:41;;;;;;;19.63;9.18;;;;;;;23.23;15.49;96093.97;5065415;28;20064;-81
2021/01/30 02:10:18;;;;;;;17.88;9.73;;;;;;;23.46;15.28;96084.84;5067384;28;20025;-81
2021/01/30 02:12:48;;;;;;;21.83;10.90;;;;;;;23.60;15.34;96086.13;5056028;28;20036;-81
2021/01/30 02:15:16;;;;;;;20.05;10.10;;;;;;;23.36;15.58;96083.38;5063915;28;20106;-81
2021/01/30 02:18:13;;;;;;;28.42;13.63;;;;;;;23.25;15.52;96083.06;5060479;28;20032;-81
2021/01/30 02:21:12;;;;;;;26.20;14.02;;;;;;;23.19;15.68;96076.59;5059821;28;20060;-80
2021/01/30 02:24:12;;;;;;;24.45;12.25;;;;;;;23.22;15.68;96076.41;5072958;28;20122;-80
2021/01/30 02:27:10;;;;;;;22.98;11.95;;;;;;;23.28;15.47;96068.13;5068755;28;20044;-80
2021/01/30 02:30:10;;;;;;;31.40;13.77;;;;;;;22.74;15.83;96062.84;5065303;28;20403;-81
2021/01/30 02:33:06;;;;;;;28.27;14.13;;;;;;;22.44;16.15;96056.25;5065781;28;20033;-80
2021/01/30 02:35:57;;;;;;;26.38;13.40;;;;;;;22.42;16.51;96062.34;5069368;28;20110;-80
2021/01/30 02:38:27;;;;;;;22.90;11.85;;;;;;;22.36;16.35;96057.81;5063852;28;20037;-80
2021/01/30 02:41:00;;;;;;;24.95;13.13;;;;;;;22.53;16.20;96051.41;5071360;28;20036;-80
2021/01/30 02:43:34;;;;;;;25.95;12.38;;;;;;;22.65;16.33;96056.06;5058091;28;20036;-80
2021/01/30 02:46:06;;;;;;;21.38;11.60;;;;;;;22.91;15.86;96053.59;5059351;28;20052;-81
2021/01/30 02:48:40;;;;;;;30.77;14.77;;;;;;;22.41;16.39;96043.22;5071897;28;20029;-80
2021/01/30 02:51:11;;;;;;;27.17;13.38;;;;;;;21.91;16.84;96047.56;5061854;28;20033;-80
2021/01/30 02:53:39;;;;;;;;;;;;;;;21.88;16.97;96040.09;5062274;28;20094;-80
2021/01/30 02:56:06;;;;;;;25.55;13.85;;;;;;;22.25;16.60;96046.38;5056587;28;19956;-81
2021/01/30 02:58:41;;;;;;;27.35;13.52;;;;;;;22.57;16.30;96038.03;5065543;28;20060;-80
2021/01/30 03:01:10;;;;;;;29.30;14.57;;;;;;;22.82;16.03;96030.47;5067962;28;20056;-81
2021/01/30 03:03:37;;;;;;;21.90;10.68;;;;;;;22.95;16.10;96031.78;5064442;28;20060;-81
2021/01/30 03:06:14;;;;;;;22.83;11.52;;;;;;;22.52;16.33;96041.47;5069163;28;20526;-81
2021/01/30 03:09:06;;;;;;;22.63;11.05;;;;;;;22.04;16.76;96039.75;5061996;28;20143;-80
2021/01/30 03:11:41;;;;;;;25.70;13.35;;;;;;;21.90;16.97;96038.41;5070223;28;20021;-80
2021/01/30 03:14:20;;;;;;;32.72;13.90;;;;;;;21.80;17.07;96036.03;5065252;28;20036;-81
2021/01/30 03:16:47;;;;;;;27.17;13.85;;;;;;;21.71;17.09;96038.84;5059762;28;20040;-80
2021/01/30 03:19:27;;;;;;;27.50;13.40;;;;;;;21.49;17.39;96027.09;5063558;28;20037;-81
2021/01/30 03:22:01;;;;;;;24.45;13.38;;;;;;;21.45;17.49;96021.66;5062256;28;20036;-80
2021/01/30 03:24:29;;;;;;;25.60;13.18;;;;;;;21.71;17.22;96014.50;5064885;28;20037;-80
2021/01/30 03:26:55;;;;;;;24.38;11.88;;;;;;;21.42;17.35;96011.44;5066270;28;20044;-80
2021/01/30 03:29:21;;;;;;;24.17;12.75;;;;;;;21.14;17.71;96016.22;5081560;28;20029;-80
2021/01/30 03:31:48;;;;;;;28.20;13.98;;;;;;;21.09;17.75;96014.06;5073998;28;20516;-80
2021/01/30 03:34:15;;;;;;;23.52;12.52;;;;;;;21.35;17.70;96008.94;5064852;28;20040;-80
2021/01/30 03:36:42;;;;;;;24.02;12.07;;;;;;;21.45;17.63;96007.69;5038858;28;20020;-80
2021/01/30 03:39:16;;;;;;;24.92;13.10;;;;;;;21.56;17.37;96005.22;5061784;28;20112;-81
2021/01/30 03:41:43;;;;;;;28.90;12.88;;;;;;;21.71;17.25;96008.91;5057900;28;20495;-80
2021/01/30 03:44:12;;;;;;;25.02;12.20;;;;;;;22.06;17.08;96002.94;5069957;28;20122;-80
2021/01/30 03:46:40;;;;;;;18.95;9.95;;;;;;;22.65;16.28;96004.94;5063892;28;20025;-80
2021/01/30 03:49:06;;;;;;;19.63;10.95;;;;;;;23.02;15.95;95995.06;5071388;28;20048;-80
2021/01/30 03:51:32;;;;;;;22.77;11.52;;;;;;;22.81;16.25;95990.53;5068548;28;20099;-80
2021/01/30 03:53:58;;;;;;;22.77;11.25;;;;;;;22.69;16.22;96003.50;5060715;28;20033;-80
2021/01/30 03:56:24;;;;;;;23.13;11.73;;;;;;;22.49;16.36;95999.69;5067789;28;20036;-80
2021/01/30 03:58:50;;;;;;;23.02;11.65;;;;;;;22.30;16.71;95998.22;5059972;28;20111;-80
2021/01/30 04:01:20;;;;;;;28.25;13.23;;;;;;;22.02;16.91;95992.75;5067192;28;20028;-81
2021/01/30 04:03:48;;;;;;;23.90;12.57;;;;;;;21.55;17.34;95995.28;5061178;28;20104;-80
2021/01/30 04:06:15;;;;;;;23.92;12.20;;;;;;;21.49;17.63;95988.78;5068359;28;20037;-81
2021/01/30 04:08:44;;;;;;;21.33;10.70;;;;;;;21.91;17.16;95978.47;5060407;28;20040;-81
2021/01/30 04:11:10;;;;;;;26.42;12.00;;;;;;;21.89;17.16;95971.81;5061227;28;20519;-80
2021/01/30 04:13:36;;;;;;;26.27;12.05;;;;;;;21.71;17.28;95975.41;5045663;28;20055;-81
2021/01/30 04:16:03;;;;;;;24.45;13.15;;;;;;;21.94;17.07;95966.34;5061116;28;20132;-81
2021/01/30 04:18:29;;;;;;;26.73;12.00;;;;;;;22.28;16.90;95970.75;5062476;28;20086;-81
2021/01/30 04:20:55;;;;;;;20.83;10.82;;;;;;;22.30;16.87;95959.88;5065850;28;20422;-80
2021/01/30 04:23:22;;;;;;;25.45;12.50;;;;;;;22.69;16.51;95967.13;5070632;28;20064;-81
2021/01/30 04:25:48;;;;;;;21.38;11.38;;;;;;;22.63;16.45;95974.63;5074769;28;20458;-81
2021/01/30 04:28:14;;;;;;;25.25;12.73;;;;;;;22.12;16.87;95970.34;5073066;28;20033;-81
2021/01/30 04:30:40;;;;;;;21.10;11.10;;;;;;;22.25;16.84;95965.31;5074299;28;20056;-81
2021/01/30 04:33:06;;;;;;;25.83;12.85;;;;;;;22.40;16.63;95957.81;5063110;28;20044;-81
2021/01/30 04:35:34;;;;;;;24.45;11.57;;;;;;;22.29;16.88;95966.69;5068423;28;20041;-81
2021/01/30 04:38:02;;;;;;;25.15;13.10;;;;;;;22.23;16.79;95960.19;5070420;28;20717;-81
2021/01/30 04:40:39;;;;;;;24.25;12.43;;;;;;;22.08;17.08;95956.53;5066860;28;20388;-81
2021/01/30 04:43:12;;;;;;;25.85;12.90;;;;;;;22.24;16.90;95944.22;5066830;28;20029;-81
2021/01/30 04:45:50;;;;;;;23.20;11.70;;;;;;;22.33;16.73;95944.94;5061544;28;20033;-81
2021/01/30 04:48:45;;;;;;;28.13;13.15;;;;;;;22.30;16.86;95936.72;5068318;28;20031;-81
2021/01/30 04:51:20;;;;;;;26.27;13.07;;;;;;;22.48;16.57;95934.59;5070252;28;20028;-81
2021/01/30 04:54:29;;;;;;;29.15;14.18;;;;;;;21.99;17.03;95923.03;5062874;28;20036;-80
2021/01/30 04:57:18;;;;;;;27.80;14.30;;;;;;;21.73;17.36;95911.44;5040279;28;20110;-80
2021/01/30 04:59:44;;;;;;;30.63;14.15;;;;;;;21.04;18.07;95913.41;5060629;28;20024;-80
2021/01/30 05:02:38;;;;;;;26.38;13.32;;;;;;;19.93;18.90;95915.66;5061088;28;20031;-81
2021/01/30 05:05:09;;;;;;;28.92;14.10;;;;;;;20.43;18.69;95908.88;5064768;28;20040;-81
2021/01/30 05:07:41;;;;;;;28.25;14.90;;;;;;;20.82;18.23;95919.13;5068345;28;20028;-80
2021/01/30 05:10:13;;;;;;;27.85;14.57;;;;;;;20.59;18.50;95922.53;5068870;28;20480;-80
2021/01/30 05:12:54;;;;;;;27.90;14.88;;;;;;;20.78;18.30;95924.09;5068452;28;20507;-80
2021/01/30 05:15:39;;;;;;;25.90;13.82;;;;;;;21.01;18.10;95917.91;5071769;28;20037;-80
2021/01/30 05:18:09;;;;;;;32.08;15.10;;;;;;;21.22;17.87;95919.00;5067831;28;20028;-80
2021/01/30 05:20:41;;;;;;;36.40;16.67;;;;;;;20.61;18.31;95922.84;5074749;28;20115;-80
2021/01/30 05:23:10;;;;;;;28.52;15.18;;;;;;;20.28;18.89;95919.81;5072699;28;20031;-81
2021/01/30 05:25:36;;;;;;;29.63;14.15;;;;;;;19.90;19.36;95909.03;5061356;28;20032;-81
2021/01/30 05:28:21;;;;;;;29.52;14.80;;;;;;;20.34;18.80;95914.44;5061205;28;20056;-81
2021/01/30 05:31:11;;;;;;;30.85;16.48;;;;;;;19.81;19.31;95919.34;5060496;28;20032;-80
2021/01/30 05:33:40;;;;;;;32.92;16.02;;;;;;;20.54;18.62;95917.56;5065116;28;20051;-81
2021/01/30 05:36:31;;;;;;;32.25;15.88;;;;;;;20.91;18.31;95924.72;5065501;28;20040;-81
2021/01/30 05:39:09;;;;;;;38.17;18.92;;;;;;;20.35;18.79;95916.75;5054135;28;20045;-81
2021/01/30 05:42:04;;;;;;;33.95;16.77;;;;;;;19.71;19.62;95912.94;5059861;28;20104;-81
2021/01/30 05:44:58;;;;;;;34.58;17.27;;;;;;;19.68;19.72;95908.28;5062025;28;20036;-81
2021/01/30 05:47:28;;;;;;;36.17;18.45;;;;;;;20.14;19.20;95909.22;5065537;28;20036;-80
2021/01/30 05:50:02;;;;;;;31.88;15.60;;;;;;;20.56;18.69;95903.97;5070057;28;20044;-80
2021/01/30 05:52:34;;;;;;;30.58;17.58;;;;;;;20.44;18.77;95916.00;5050365;28;20033;-81
2021/01/30 05:55:00;;;;;;;37.83;17.88;;;;;;;20.44;18.73;95905.63;5082282;28;20029;-81
2021/01/30 05:57:26;;;;;;;38.92;18.20;;;;;;;20.19;18.95;95907.84;5046776;28;20110;-80
2021/01/30 05:59:56;;;;;;;33.25;16.15;;;;;;;20.20;19.31;95906.63;5065147;28;20112;-80
2021/01/30 06:02:27;;;;;;;37.53;19.02;;;;;;;19.80;19.37;95903.84;5061893;28;20028;-79
2021/01/30 06:04:54;;;;;;;34.97;17.60;;;;;;;20.25;19.16;95897.69;5067696;28;20052;-80
2021/01/30 06:07:26;;;;;;;29.58;14.98;;;;;;;20.48;18.90;95906.25;5070016;28;20479;-80
2021/01/30 06:09:52;;;;;;;34.63;16.35;;;;;;;20.12;19.45;95905.38;5058913;28;20086;-80
2021/01/30 06:12:29;;;;;;;38.38;18.88;;;;;;;20.24;19.17;95901.72;5068763;28;20119;-79
2021/01/30 06:15:14;;;;;;;33.97;18.02;;;;;;;19.92;19.40;95906.53;5066616;28;20523;-80
2021/01/30 06:17:42;;;;;;;28.08;14.60;;;;;;;20.33;19.18;95905.28;5061018;28;20065;-79
2021/01/30 06:20:19;;;;;;;30.70;15.65;;;;;;;20.42;18.92;95902.53;5062828;28;20365;-80
2021/01/30 06:22:46;;;;;;;32.33;15.60;;;;;;;19.37;20.10;95896.34;5068454;28;20036;-80
2021/01/30 06:25:25;;;;;;;28.33;14.43;;;;;;;19.55;19.98;95890.91;5066540;28;20029;-81
2021/01/30 06:28:01;;;;;;;33.20;15.38;;;;;;;20.57;19.03;95902.72;5063264;28;20037;-80
2021/01/30 06:30:34;;;;;;;30.83;15.55;;;;;;;20.66;19.08;95889.56;5046036;28;20395;-80
2021/01/30 06:33:05;;;;;;;34.55;15.25;;;;;;;20.12;19.90;95900.56;5070562;28;20033;-80
2021/01/30 06:35:38;;;;;;;35.70;17.63;;;;;;;20.05;19.71;95894.53;5082594;28;20037;-80
2021/01/30 06:38:11;;;;;;;32.85;15.95;;;;;;;20.64;19.28;95894.03;5067945;28;20039;-81
2021/01/30 06:40:52;;;;;;;35.60;18.40;;;;;;;20.46;19.47;95882.88;5050401;28;20380;-81
2021/01/30 06:43:29;;;;;;;34.92;16.17;;;;;;;20.67;19.19;95888.31;5052213;28;20201;-81
2021/01/30 06:46:22;;;;;;;28.55;14.13;;;;;;;21.01;19.30;95878.06;5062586;28;20491;-81
2021/01/30 06:48:51;;;;;;;42.95;21.58;;;;;;;19.57;20.34;95877.31;5061639;28;20037;-81
2021/01/30 06:51:28;;;;;;;42.63;22.02;;;;;;;19.02;21.38;95881.00;5070241;28;20112;-80
2021/01/30 06:53:55;;;;;;;40.17;19.25;;;;;;;20.29;20.09;95881.59;5061766;28;20491;-80
2021/01/30 06:56:28;;;;;;;32.45;16.27;;;;;;;20.67;19.59;95871.59;5067937;28;20399;-81
2021/01/30 06:59:06;;;;;;;40.15;19.20;;;;;;;20.93;19.43;95871.28;5067830;28;20068;-81
2021/01/30 07:01:40;;;;;;;33.72;16.55;;;;;;;21.36;18.90;95865.34;5060523;28;20052;-82
2021/01/30 07:04:22;;;;;;;37.75;18.85;;;;;;;21.45;18.86;95862.50;5064451;28;20449;-82
2021/01/30 07:07:21;;;;;;;37.28;17.55;;;;;;;21.69;18.57;95845.84;5066585;28;20017;-81
2021/01/30 07:10:11;;;;;;;29.73;14.05;;;;;;;22.30;18.19;95850.06;5059676;28;20035;-79
2021/01/30 07:12:43;;;;;;;35.80;17.40;;;;;;;22.12;18.38;95850.16;5065394;28;20477;-80
2021/01/30 07:15:30;;;;;;;26.63;14.73;;;;;;;22.27;18.43;95846.19;5067315;28;20119;-80
2021/01/30 07:18:28;;;;;;;37.08;17.95;;;;;;;22.54;18.33;95834.81;5058282;28;20152;-80
2021/01/30 07:21:08;;;;;;;36.58;15.25;;;;;;;22.36;18.54;95831.38;5071086;28;20040;-80
2021/01/30 07:23:41;;;;;;;32.08;15.27;;;;;;;22.13;18.76;95824.53;5065825;28;20042;-81
2021/01/30 07:26:20;;;;;;;28.23;13.52;;;;;;;22.31;18.69;95830.00;5070733;28;20068;-81
2021/01/30 07:28:56;;;;;;;24.98;13.07;;;;;;;22.33;18.67;95827.53;5066517;28;20045;-79
2021/01/30 07:31:50;;;;;;;27.48;14.40;;;;;;;22.06;19.09;95821.31;5069099;28;20032;-80
2021/01/30 07:34:29;;;;;;;33.75;14.77;;;;;;;22.07;19.31;95823.66;5070604;28;20028;-80
2021/01/30 07:37:05;;;;;;;24.65;12.90;;;;;;;22.30;19.32;95810.91;5058900;28;20127;-80
2021/01/30 07:39:58;;;;;;;26.35;14.32;;;;;;;22.59;19.03;95813.81;5069219;28;20040;-80
2021/01/30 07:42:43;;;;;;;24.73;12.73;;;;;;;23.16;18.46;95801.19;5068316;28;20507;-81
2021/01/30 07:45:26;;;;;;;23.67;12.02;;;;;;;23.15;18.59;95798.88;5061884;28;20025;-79
2021/01/30 07:48:01;;;;;;;21.95;10.10;;;;;;;23.46;18.17;95801.19;5071443;28;20028;-81
2021/01/30 07:50:38;;;;;;;19.70;10.25;;;;;;;23.99;17.86;95801.75;5081002;28;20060;-81
2021/01/30 07:53:23;;;;;;;21.73;11.57;;;;;;;23.97;17.79;95801.44;5071407;28;20507;-79
2021/01/30 07:56:17;;;;;;;18.75;10.02;;;;;;;23.80;18.09;95800.47;5072216;28;20503;-80
2021/01/30 07:59:03;;;;;;;24.13;12.65;;;;;;;23.64;18.43;95798.94;5068192;28;20033;-80
2021/01/30 08:02:05;;;;;;;23.50;12.68;;;;;;;23.64;18.37;95789.78;5065547;28;20459;-79
2021/01/30 08:04:40;;;;;;;20.02;10.75;;;;;;;23.77;18.45;95798.63;5066282;28;20024;-79
2021/01/30 08:07:47;;;;;;;29.38;14.43;;;;;;;24.00;18.36;95800.50;5060008;28;20039;-80
2021/01/30 08:10:13;;;;;;;26.55;11.95;;;;;;;24.34;17.94;95790.53;5026512;28;20053;-80
2021/01/30 08:13:01;;;;;;;23.02;11.15;;;;;;;23.76;18.69;95789.44;5063311;28;20120;-80
2021/01/30 08:15:55;;;;;;;26.92;13.45;;;;;;;23.78;18.34;95786.91;5067734;28;20116;-81
2021/01/30 08:18:38;;;;;;;30.30;14.02;;;;;;;23.93;18.38;95784.06;5067343;28;20099;-81
2021/01/30 08:21:37;;;;;;;30.15;14.70;;;;;;;23.89;18.59;95783.53;5072412;28;20032;-81
2021/01/30 08:24:10;;;;;;;34.30;16.27;;;;;;;23.98;18.47;95783.38;5070686;28;20032;-82
2021/01/30 08:26:47;;;;;;;29.67;13.98;;;;;;;24.03;18.53;95779.91;5065491;28;20036;-83
2021/01/30 08:29:32;;;;;;;33.30;15.23;;;;;;;24.00;18.85;95776.03;5064467;28;20028;-83
2021/01/30 08:32:20;;;;;;;31.92;16.02;;;;;;;23.71;18.99;95776.09;5063605;28;20122;-83
2021/01/30 08:34:46;;;;;;;22.95;12.15;;;;;;;24.00;19.09;95781.63;5047928;28;20047;-83
2021/01/30 08:37:12;;;;;;;20.10;10.27;;;;;;;24.23;19.22;95787.56;5066074;28;20035;-85
2021/01/30 08:40:01;;;;;;;14.18;9.40;;;;;;;24.34;19.10;95787.72;5062365;28;20032;-83
2021/01/30 08:42:34;;;;;;;17.45;8.63;;;;;;;23.46;20.08;95787.94;5070341;28;20078;-82
2021/01/30 08:45:09;;;;;;;13.38;6.80;;;;;;;23.71;19.83;95764.16;5070035;28;20090;-83
2021/01/30 08:48:03;;;;;;;12.23;7.35;;;;;;;23.33;20.58;95785.44;5069615;28;20024;-83
2021/01/30 08:50:40;;;;;;;10.85;6.78;;;;;;;23.77;19.95;95782.59;5042825;28;20040;-84
2021/01/30 08:53:16;;;;;;;12.70;6.43;;;;;;;24.38;19.58;95785.47;5065205;28;20039;-83
2021/01/30 08:55:44;;;;;;;13.57;6.97;;;;;;;24.57;19.06;95784.72;5063053;28;20028;-82
2021/01/30 08:58:29;;;;;;;13.52;7.40;;;;;;;24.63;19.26;95785.53;5066409;28;20039;-84
2021/01/30 09:01:08;;;;;;;11.40;6.65;;;;;;;24.53;19.21;95789.75;5063830;28;20042;-84
2021/01/30 09:03:40;;;;;;;10.60;6.28;;;;;;;24.73;18.99;95777.72;5062678;28;20040;-84
2021/01/30 09:06:08;;;;;;;10.60;5.80;;;;;;;24.47;19.38;95780.50;5062042;28;20021;-84
2021/01/30 09:08:38;;;;;;;11.13;5.72;;;;;;;24.32;19.71;95782.59;5063917;28;20047;-84
2021/01/30 09:11:22;;;;;;;12.70;6.22;;;;;;;23.38;20.22;95781.22;5061023;28;20554;-85
2021/01/30 09:14:06;;;;;;;12.00;5.88;;;;;;;23.73;20.09;95793.22;5072827;28;20081;-86
2021/01/30 09:16:57;;;;;;;10.52;5.20;;;;;;;23.09;20.99;95789.59;5061570;28;20040;-83
2021/01/30 09:20:00;;;;;;;7.05;4.03;;;;;;;23.41;20.89;95782.28;5058352;28;20040;-84
2021/01/30 09:22:35;;;;;;;5.55;3.47;;;;;;;23.94;20.42;95783.59;5066107;28;20033;-84
2021/01/30 09:25:34;;;;;;;10.27;3.70;;;;;;;23.51;20.99;95781.66;5064893;28;20032;-84
2021/01/30 09:28:05;;;;;;;3.78;2.05;;;;;;;24.09;20.21;95785.59;5060643;28;20079;-84
2021/01/30 09:30:33;;;;;;;7.95;2.67;;;;;;;24.38;20.08;95785.47;5068751;28;20163;-83
2021/01/30 09:33:20;;;;;;;5.82;3.03;;;;;;;24.36;19.92;95782.41;5067591;28;20063;-83
2021/01/30 09:35:47;;;;;;;7.40;3.45;;;;;;;24.78;19.83;95784.69;5064161;28;20337;-84
2021/01/30 09:38:18;;;;;;;3.92;2.40;;;;;;;24.64;19.79;95778.63;5057546;28;20048;-84
2021/01/30 09:40:44;;;;;;;;;;;;;;;25.11;19.57;95785.06;5059931;28;20056;-84
2021/01/30 09:43:10;;;;;;;2.95;1.88;;;;;;;24.65;19.76;95793.44;5071332;28;19922;-84
2021/01/30 09:45:38;;;;;;;3.47;2.13;;;;;;;23.43;21.04;95782.56;5065746;28;20621;-82
2021/01/30 09:48:10;;;;;;;6.03;1.77;;;;;;;24.04;20.43;95787.81;5057551;28;20121;-83
2021/01/30 09:50:43;;;;;;;4.25;1.60;;;;;;;24.28;20.26;95784.84;5055369;28;20032;-84
2021/01/30 09:53:15;;;;;;;5.32;2.55;;;;;;;24.13;20.25;95783.38;5060327;28;22824;-83
2021/01/30 09:55:41;;;;;;;5.93;2.20;;;;;;;23.92;20.74;95780.50;5061485;28;20033;-84
2021/01/30 09:58:13;;;;;;;9.93;4.47;;;;;;;24.55;20.13;95780.84;5060746;28;20040;-83
2021/01/30 10:00:42;;;;;;;19.73;8.32;;;;;;;25.21;19.75;95772.34;5068380;28;20025;-84
2021/01/30 10:03:23;;;;;;;4.95;2.35;;;;;;;24.78;20.08;95784.69;5061266;28;20032;-84
2021/01/30 10:05:53;;;;;;;5.82;2.85;;;;;;;24.11;20.82;95783.84;5068124;28;20483;-84
2021/01/30 10:08:26;;;;;;;7.30;2.30;;;;;;;24.94;19.97;95784.88;5057707;28;20033;-84
2021/01/30 10:11:06;;;;;;;5.65;2.00;;;;;;;24.72;20.15;95791.00;5065069;28;20151;-84
2021/01/30 10:13:33;;;;;;;3.35;1.30;;;;;;;24.58;20.22;95780.63;5068214;28;20033;-84
2021/01/30 10:16:02;;;;;;;4.57;1.73;;;;;;;24.17;20.54;95781.13;5059202;28;20132;-84
2021/01/30 10:18:33;;;;;;;4.63;2.10;;;;;;;23.88;20.70;95787.56;5066094;28;20403;-84
2021/01/30 10:21:01;;;;;;;3.27;1.30;;;;;;;23.83;20.78;95782.66;5062479;28;20384;-84
2021/01/30 10:23:36;;;;;;;3.15;1.27;;;;;;;24.12;20.61;95784.63;5061968;28;20332;-84
2021/01/30 10:26:15;;;;;;;4.32;1.52;;;;;;;23.71;21.12;95794.97;5065091;28;20036;-84
2021/01/30 10:28:47;;;;;;;2.88;1.52;;;;;;;23.41;21.48;95797.03;5060875;28;20037;-85
2021/01/30 10:31:17;;;;;;;5.22;2.47;;;;;;;23.19;21.80;95793.84;5070257;28;20032;-84
2021/01/30 10:33:49;;;;;;;12.45;4.82;;;;;;;23.78;21.23;95797.38;5059542;28;20036;-84
2021/01/30 10:36:17;;;;;;;9.05;3.85;;;;;;;23.60;21.48;95789.97;5062412;28;20028;-84
2021/01/30 10:38:44;;;;;;;6.60;2.45;;;;;;;23.28;21.89;95796.53;5055949;28;20087;-84
2021/01/30 10:41:17;;;;;;;2.75;1.33;;;;;;;23.00;22.44;95786.88;5061154;28;20056;-83
2021/01/30 10:43:46;;;;;;;3.00;1.70;;;;;;;23.13;22.28;95787.34;5061581;28;20057;-83
2021/01/30 10:46:29;;;;;;;2.20;1.20;;;;;;;21.59;24.02;95797.63;5064698;28;20051;-81
2021/01/30 10:49:04;;;;;;;2.05;1.00;;;;;;;20.87;25.45;95803.38;5063686;28;20571;-82
2021/01/30 10:51:32;;;;;;;2.42;1.13;;;;;;;18.52;28.72;95793.84;5065671;28;20047;-83
2021/01/30 10:54:23;;;;;;;1.77;1.13;;;;;;;16.51;32.16;95869.50;5050179;28;20048;-83
2021/01/30 10:57:12;;;;;;;4.43;2.33;;;;;;;14.87;33.37;95881.25;5073167;28;20032;-83
2021/01/30 10:59:55;;;;;;;4.97;2.63;;;;;;;14.21;34.00;95881.31;5066812;28;20384;-84
2021/01/30 11:02:37;;;;;;;9.00;2.85;;;;;;;15.17;31.69;95869.16;5059525;28;20086;-83
2021/01/30 11:05:21;;;;;;;5.43;2.38;;;;;;;15.09;31.21;95895.41;5066559;28;20104;-83
2021/01/30 11:07:58;;;;;;;7.97;3.28;;;;;;;14.33;33.06;95877.97;5063693;28;20029;-82
2021/01/30 11:10:37;;;;;;;8.70;4.57;;;;;;;14.31;32.89;95896.16;5075208;28;20437;-83
2021/01/30 11:13:13;;;;;;;11.52;4.82;;;;;;;14.94;31.77;95888.63;5066688;28;20031;-83
2021/01/30 11:15:44;;;;;;;9.57;4.50;;;;;;;16.89;28.84;95908.44;5057838;28;20523;-83
2021/01/30 11:18:36;;;;;;;10.70;5.82;;;;;;;16.47;28.93;95951.09;5050119;28;20557;-83
2021/01/30 11:21:05;;;;;;;17.23;7.57;;;;;;;15.64;30.07;95963.75;5039204;28;20045;-82
2021/01/30 11:23:48;;;;;;;16.73;9.63;;;;;;;15.10;30.85;95985.38;5050666;28;20486;-82
2021/01/30 11:26:38;;;;;;;22.00;10.85;;;;;;;14.79;30.82;95973.78;5052111;28;20021;-83
2021/01/30 11:29:27;;;;;;;19.85;11.18;;;;;;;14.70;31.45;95997.63;5047313;28;20043;-83
2021/01/30 11:31:56;;;;;;;23.40;10.40;;;;;;;14.75;30.96;95992.38;5053926;28;20547;-83
2021/01/30 11:34:23;;;;;;;25.95;13.20;;;;;;;15.01;30.22;96005.31;5048128;28;20033;-82
2021/01/30 11:36:49;;;;;;;25.80;12.85;;;;;;;15.62;29.30;96016.75;5061203;28;20120;-82
2021/01/30 11:39:22;;;;;;;26.60;13.60;;;;;;;16.46;27.14;96016.00;5050200;28;20100;-81
2021/01/30 11:41:48;;;;;;;30.60;15.65;;;;;;;15.63;28.64;96026.63;5054516;28;20962;-85
2021/01/30 11:44:14;;;;;;;38.35;19.13;;;;;;;14.55;29.90;96013.66;5052959;28;20083;-84
2021/01/30 11:46:40;;;;;;;34.63;17.33;;;;;;;15.48;28.78;96030.88;5045720;28;20040;-83
2021/01/30 11:49:06;;;;;;;36.33;19.08;;;;;;;15.20;28.95;96043.25;5050718;28;20029;-84
2021/01/30 11:51:33;;;;;;;39.95;20.80;;;;;;;13.93;30.74;96047.31;5052767;28;20124;-85
2021/01/30 11:53:59;;;;;;;44.88;22.88;;;;;;;13.72;31.08;96056.66;5053336;28;20029;-85
2021/01/30 11:56:25;;;;;;;41.92;20.63;;;;;;;14.02;30.75;96079.91;5050354;28;20060;-85